Time;durP1;ratioP1;P1;durP2;ratioP2;P2;SDS_P1;SDS_P2;PMS_P1;PMS_P2;Temp;Humidity;BMP_temperature;BMP_pressure;BME280_temperature;BME280_humidity;BME280_pressure;Samples;Min_cycle;Max_cycle;Signal;HPM_P1;HPM_P2
2022/07/31 00:02:10;;;;;;;16.57;14.60;;;17.80;99.90;;;;;;5109215;27;20207;-46
2022/07/31 00:04:38;;;;;;;16.97;13.37;;;17.80;99.90;;;;;;5104106;27;20574;-45
2022/07/31 00:07:05;;;;;;;21.87;15.40;;;17.80;99.90;;;;;;5100995;27;20254;-44
2022/07/31 00:09:32;;;;;;;18.23;14.23;;;17.80;99.90;;;;;;5114026;27;20233;-46
2022/07/31 00:11:59;;;;;;;15.93;13.50;;;17.80;99.90;;;;;;5107321;27;20188;-45
2022/07/31 00:14:26;;;;;;;15.80;14.20;;;17.70;99.90;;;;;;5109826;27;20653;-44
2022/07/31 00:16:53;;;;;;;18.77;12.63;;;17.70;99.90;;;;;;5107275;27;20963;-47
2022/07/31 00:19:20;;;;;;;15.03;13.03;;;17.70;99.90;;;;;;5115823;27;20200;-48
2022/07/31 00:21:48;;;;;;;16.10;13.27;;;17.80;99.90;;;;;;5100118;27;20205;-46
2022/07/31 00:24:15;;;;;;;20.30;13.40;;;17.80;99.90;;;;;;5113299;27;20200;-43
2022/07/31 00:26:42;;;;;;;18.70;13.93;;;17.80;99.90;;;;;;5107681;27;20182;-45
2022/07/31 00:29:10;;;;;;;15.40;13.80;;;17.80;99.90;;;;;;5112583;27;20257;-47
2022/07/31 00:31:37;;;;;;;20.67;14.63;;;17.80;99.90;;;;;;5110646;27;20212;-46
2022/07/31 00:34:04;;;;;;;19.67;14.20;;;17.70;99.90;;;;;;5106180;27;20208;-47
2022/07/31 00:36:30;;;;;;;18.37;14.43;;;17.70;99.90;;;;;;5100224;27;20224;-45
2022/07/31 00:39:00;;;;;;;15.83;14.17;;;17.70;99.90;;;;;;5109184;27;20193;-45
2022/07/31 00:41:38;;;;;;;16.30;12.67;;;17.70;99.90;;;;;;5115378;27;20192;-43
2022/07/31 00:44:05;;;;;;;19.23;14.07;;;17.70;99.90;;;;;;5114247;27;20200;-43
2022/07/31 00:46:32;;;;;;;18.07;12.43;;;17.70;99.90;;;;;;5118604;27;20201;-44
2022/07/31 00:48:59;;;;;;;15.70;13.13;;;17.70;99.90;;;;;;5111724;27;20287;-44
2022/07/31 00:51:26;;;;;;;21.00;14.03;;;17.70;99.90;;;;;;5113204;27;20550;-47
2022/07/31 00:53:53;;;;;;;16.27;12.60;;;17.70;99.90;;;;;;5094475;27;20205;-44
2022/07/31 00:56:22;;;;;;;21.30;15.20;;;17.60;99.90;;;;;;5118637;27;20220;-46
2022/07/31 00:58:49;;;;;;;15.53;13.93;;;17.60;99.90;;;;;;5116635;27;20213;-46
2022/07/31 01:01:15;;;;;;;20.37;15.30;;;17.60;99.90;;;;;;5103181;28;20204;-47
2022/07/31 01:03:42;;;;;;;16.20;14.53;;;17.60;99.90;;;;;;5109025;27;20192;-45
2022/07/31 01:06:09;;;;;;;15.60;13.50;;;17.60;99.90;;;;;;5121959;27;20201;-44
2022/07/31 01:08:36;;;;;;;20.73;15.13;;;17.50;99.90;;;;;;5096188;27;20205;-44
2022/07/31 01:11:06;;;;;;;15.03;13.13;;;17.50;99.90;;;;;;5110946;28;20216;-45
2022/07/31 01:13:48;;;;;;;17.43;13.73;;;17.50;99.90;;;;;;5100106;27;20212;-48
2022/07/31 01:16:17;;;;;;;19.80;15.17;;;17.50;99.90;;;;;;5110054;27;20773;-48
2022/07/31 01:18:44;;;;;;;16.67;14.97;;;17.50;99.90;;;;;;5109017;27;20963;-44
2022/07/31 01:21:16;;;;;;;14.67;12.87;;;17.50;99.90;;;;;;5104880;27;20212;-44
2022/07/31 01:24:03;;;;;;;16.83;15.03;;;17.40;99.90;;;;;;5089875;28;20200;-44
2022/07/31 01:26:50;;;;;;;16.53;14.80;;;17.40;99.90;;;;;;5109095;28;20895;-49
2022/07/31 01:29:25;;;;;;;17.27;14.33;;;17.40;99.90;;;;;;5122670;28;20249;-49
2022/07/31 01:31:58;;;;;;;18.97;14.47;;;17.40;99.90;;;;;;5114919;27;20237;-44
2022/07/31 01:34:31;;;;;;;18.80;14.13;;;17.40;99.90;;;;;;5115663;28;20209;-46
2022/07/31 01:37:08;;;;;;;17.33;13.67;;;17.40;99.90;;;;;;5111079;28;20902;-47
2022/07/31 01:39:36;;;;;;;20.07;13.73;;;17.40;99.90;;;;;;5098478;28;20287;-44
2022/07/31 01:42:07;;;;;;;19.27;13.00;;;17.30;99.90;;;;;;5117587;28;20733;-44
2022/07/31 01:44:41;;;;;;;20.50;15.50;;;17.30;99.90;;;;;;5102849;28;20250;-46
2022/07/31 01:47:11;;;;;;;19.77;16.30;;;17.40;99.90;;;;;;5107986;28;20345;-46
2022/07/31 01:49:39;;;;;;;19.87;13.80;;;17.30;99.90;;;;;;5110502;28;20713;-44
2022/07/31 01:52:07;;;;;;;19.73;15.20;;;17.30;99.90;;;;;;5102463;28;20592;-44
2022/07/31 01:54:36;;;;;;;16.93;15.13;;;17.20;99.90;;;;;;5098932;28;20221;-46
2022/07/31 01:57:05;;;;;;;17.63;15.30;;;17.20;99.90;;;;;;5109258;28;20244;-46
2022/07/31 01:59:39;;;;;;;19.77;15.07;;;17.20;99.90;;;;;;5118633;27;20223;-48
2022/07/31 02:02:15;;;;;;;18.83;15.27;;;17.20;99.90;;;;;;5126335;27;20196;-46
2022/07/31 02:04:45;;;;;;;17.37;13.77;;;17.10;99.90;;;;;;5116226;27;20245;-46
2022/07/31 02:07:15;;;;;;;22.23;16.03;;;17.10;99.90;;;;;;5126154;27;20220;-45
2022/07/31 02:09:43;;;;;;;16.60;14.73;;;17.10;99.90;;;;;;5104346;27;20202;-44
2022/07/31 02:12:12;;;;;;;18.47;15.90;;;17.10;99.90;;;;;;5104486;27;20227;-47
2022/07/31 02:14:42;;;;;;;19.03;14.90;;;17.00;99.90;;;;;;5113122;27;20189;-44
2022/07/31 02:17:13;;;;;;;17.10;14.93;;;17.00;99.90;;;;;;5121154;27;20313;-44
2022/07/31 02:20:04;;;;;;;15.10;12.53;;;17.00;99.90;;;;;;5114383;27;20200;-48
2022/07/31 02:22:32;;;;;;;16.93;14.97;;;17.00;99.90;;;;;;5104010;27;20198;-49
2022/07/31 02:25:00;;;;;;;18.80;14.63;;;17.00;99.90;;;;;;5106188;27;20204;-44
2022/07/31 02:27:28;;;;;;;17.47;15.60;;;16.90;99.90;;;;;;5106815;27;20224;-48
2022/07/31 02:29:59;;;;;;;14.77;13.07;;;16.90;99.90;;;;;;5123604;27;20200;-44
2022/07/31 02:32:28;;;;;;;14.13;12.77;;;17.00;99.90;;;;;;5116312;27;20272;-45
2022/07/31 02:34:56;;;;;;;13.77;11.67;;;17.00;99.90;;;;;;5104551;27;21098;-45
2022/07/31 02:37:25;;;;;;;13.53;12.20;;;17.00;99.90;;;;;;5111960;27;20229;-47
2022/07/31 02:39:52;;;;;;;13.43;11.97;;;16.90;99.90;;;;;;5106302;27;20193;-46
2022/07/31 02:42:21;;;;;;;15.03;12.37;;;16.80;99.90;;;;;;5107999;27;20207;-46
2022/07/31 02:44:48;;;;;;;14.03;12.63;;;16.80;99.90;;;;;;5114388;27;20184;-43
2022/07/31 02:47:17;;;;;;;16.23;13.27;;;16.70;99.90;;;;;;5126721;27;20291;-45
2022/07/31 02:49:45;;;;;;;16.77;13.27;;;16.70;99.90;;;;;;5105329;27;20214;-44
2022/07/31 02:52:13;;;;;;;17.23;13.17;;;16.70;99.90;;;;;;5113989;27;20197;-43
2022/07/31 02:54:43;;;;;;;19.77;14.30;;;16.70;99.90;;;;;;5101095;27;20201;-43
2022/07/31 02:57:10;;;;;;;18.97;14.40;;;16.60;99.90;;;;;;5096107;27;20833;-44
2022/07/31 02:59:38;;;;;;;17.90;14.23;;;;;;;;;;5110150;27;20656;-48
2022/07/31 03:02:06;;;;;;;17.83;14.13;;;16.50;99.90;;;;;;5118592;27;20207;-43
2022/07/31 03:04:41;;;;;;;16.60;13.87;;;16.50;99.90;;;;;;5117790;27;20574;-44
2022/07/31 03:07:09;;;;;;;14.33;12.83;;;16.50;99.90;;;;;;5107146;27;20301;-43
2022/07/31 03:09:36;;;;;;;16.90;13.33;;;16.40;99.90;;;;;;5111304;27;20205;-45
2022/07/31 03:12:24;;;;;;;16.00;12.80;;;16.30;99.90;;;;;;5104699;27;20212;-44
2022/07/31 03:14:51;;;;;;;14.50;13.03;;;16.20;99.90;;;;;;5106968;27;20304;-44
2022/07/31 03:17:19;;;;;;;13.87;12.57;;;16.10;99.90;;;;;;5112579;27;20236;-43
2022/07/31 03:19:48;;;;;;;15.83;12.07;;;16.10;99.90;;;;;;5102039;27;20857;-44
2022/07/31 03:22:15;;;;;;;17.30;13.20;;;16.20;99.90;;;;;;5110129;27;20196;-44
2022/07/31 03:24:42;;;;;;;15.43;12.93;;;16.20;99.90;;;;;;5105893;27;20984;-44
2022/07/31 03:27:08;;;;;;;14.20;12.43;;;16.20;99.90;;;;;;5109937;27;20242;-44
2022/07/31 03:29:39;;;;;;;15.03;13.23;;;16.20;99.90;;;;;;5097041;27;20284;-47
2022/07/31 03:32:07;;;;;;;14.63;13.13;;;16.20;99.90;;;;;;5118234;27;20200;-44
2022/07/31 03:34:35;;;;;;;14.50;12.47;;;16.10;99.90;;;;;;5119950;27;20213;-46
2022/07/31 03:37:03;;;;;;;16.03;13.03;;;16.00;99.90;;;;;;5110408;27;20303;-43
2022/07/31 03:39:30;;;;;;;14.07;12.33;;;15.90;99.90;;;;;;5108207;27;20572;-48
2022/07/31 03:42:02;;;;;;;14.07;12.63;;;15.90;99.90;;;;;;5115238;27;20209;-46
2022/07/31 03:44:32;;;;;;;15.10;12.27;;;16.00;99.90;;;;;;5105928;27;20316;-49
2022/07/31 03:47:00;;;;;;;13.73;12.33;;;15.80;99.90;;;;;;5116232;27;20221;-43
2022/07/31 03:49:27;;;;;;;20.07;13.03;;;15.90;99.90;;;;;;5116955;27;20193;-43
2022/07/31 03:51:55;;;;;;;14.50;12.97;;;15.80;99.90;;;;;;5109189;27;21128;-45
2022/07/31 03:54:23;;;;;;;14.10;12.70;;;15.80;99.90;;;;;;5124108;27;20541;-46
2022/07/31 03:57:01;;;;;;;13.40;12.00;;;15.80;99.90;;;;;;5115618;27;20308;-44
2022/07/31 03:59:29;;;;;;;15.13;12.10;;;15.90;99.90;;;;;;5109157;27;20197;-46
2022/07/31 04:01:56;;;;;;;13.27;11.90;;;15.80;99.90;;;;;;5099299;27;20258;-44
2022/07/31 04:04:34;;;;;;;14.20;12.57;;;15.80;99.90;;;;;;5105769;27;20184;-44
2022/07/31 04:07:03;;;;;;;16.03;12.57;;;15.80;99.90;;;;;;5106452;27;20236;-43
2022/07/31 04:09:32;;;;;;;14.50;13.07;;;15.80;99.90;;;;;;5119843;27;20963;-43
2022/07/31 04:11:59;;;;;;;13.57;12.27;;;15.80;99.90;;;;;;5108706;27;20250;-43
2022/07/31 04:14:26;;;;;;;13.57;12.37;;;15.80;99.90;;;;;;5101349;27;20276;-43
2022/07/31 04:16:53;;;;;;;15.10;12.30;;;15.70;99.90;;;;;;5099550;27;20769;-45
2022/07/31 04:19:20;;;;;;;13.40;12.10;;;15.70;99.90;;;;;;5112375;27;20193;-46
2022/07/31 04:21:49;;;;;;;16.37;12.40;;;15.70;99.90;;;;;;5108356;27;20573;-46
2022/07/31 04:24:17;;;;;;;15.53;12.37;;;15.70;99.90;;;;;;5109992;27;20573;-45
2022/07/31 04:27:04;;;;;;;13.10;11.80;;;15.70;99.90;;;;;;5123484;27;20227;-44
2022/07/31 04:29:38;;;;;;;12.50;11.23;;;15.70;99.90;;;;;;5109059;27;20188;-44
2022/07/31 04:32:05;;;;;;;13.50;11.93;;;15.70;99.90;;;;;;5104094;27;20236;-44
2022/07/31 04:34:41;;;;;;;15.40;13.10;;;15.70;99.90;;;;;;5106775;27;20307;-44
2022/07/31 04:37:08;;;;;;;13.50;12.13;;;15.70;99.90;;;;;;5110930;27;20224;-43
2022/07/31 04:39:34;;;;;;;15.53;12.43;;;15.70;99.90;;;;;;5114034;27;20441;-43
2022/07/31 04:42:01;;;;;;;15.90;14.20;;;15.80;99.90;;;;;;5116307;27;20688;-43
2022/07/31 04:44:31;;;;;;;17.40;15.47;;;15.80;99.90;;;;;;5105036;27;20273;-45
2022/07/31 04:46:59;;;;;;;16.77;14.37;;;15.90;99.90;;;;;;5101590;27;20216;-43
2022/07/31 04:49:26;;;;;;;17.63;15.77;;;16.00;99.90;;;;;;5107019;27;20202;-47
2022/07/31 04:51:53;;;;;;;23.20;17.23;;;16.10;99.90;;;;;;5113984;27;20676;-46
2022/07/31 04:54:20;;;;;;;18.70;16.63;;;16.20;99.90;;;;;;5100721;28;20201;-43
2022/07/31 04:56:47;;;;;;;21.23;17.20;;;16.30;99.90;;;;;;5108182;27;20208;-43
2022/07/31 04:59:16;;;;;;;21.27;17.80;;;16.30;99.90;;;;;;5110310;27;20250;-46
2022/07/31 05:01:48;;;;;;;24.40;19.17;;;16.40;99.90;;;;;;5095840;27;20700;-43
2022/07/31 05:04:18;;;;;;;30.27;21.23;;;16.40;99.90;;;;;;5115576;27;20227;-44
2022/07/31 05:06:46;;;;;;;24.70;19.13;;;16.40;99.90;;;;;;5101718;27;20296;-46
2022/07/31 05:09:15;;;;;;;26.43;20.17;;;16.50;99.90;;;;;;5110669;27;20288;-44
2022/07/31 05:11:43;;;;;;;24.70;20.00;;;16.50;99.90;;;;;;5117986;27;20193;-44
2022/07/31 05:14:12;;;;;;;20.60;18.47;;;16.60;99.90;;;;;;5114616;27;20188;-45
2022/07/31 05:16:38;;;;;;;27.23;19.47;;;16.60;99.90;;;;;;5108791;27;20204;-46
2022/07/31 05:19:07;;;;;;;24.07;17.50;;;16.60;99.90;;;;;;5097471;27;20285;-44
2022/07/31 05:22:06;;;;;;;25.47;16.93;;;16.60;99.90;;;;;;5097672;28;20808;-44
2022/07/31 05:24:48;;;;;;;24.83;18.40;;;16.70;99.90;;;;;;5111867;27;20211;-46
2022/07/31 05:27:15;;;;;;;18.50;15.83;;;16.70;99.90;;;;;;5104602;28;20300;-46
2022/07/31 05:29:42;;;;;;;21.70;17.93;;;16.80;99.90;;;;;;5105925;28;20666;-46
2022/07/31 05:32:10;;;;;;;19.97;16.43;;;16.80;99.90;;;;;;5107276;27;20869;-46
2022/07/31 05:34:39;;;;;;;18.50;15.97;;;16.80;99.90;;;;;;5107173;27;20207;-46
2022/07/31 05:37:06;;;;;;;19.33;15.97;;;16.80;99.90;;;;;;5111986;27;20925;-44
2022/07/31 05:39:36;;;;;;;25.10;17.43;;;16.80;99.90;;;;;;5107146;27;20280;-47
2022/07/31 05:42:21;;;;;;;23.57;17.63;;;16.80;99.90;;;;;;5114509;27;20280;-48
2022/07/31 05:45:03;;;;;;;23.47;16.83;;;16.80;99.90;;;;;;5114730;27;20204;-44
2022/07/31 05:47:30;;;;;;;19.70;14.73;;;16.80;99.90;;;;;;5121651;27;20250;-45
2022/07/31 05:49:58;;;;;;;19.77;16.20;;;16.80;99.90;;;;;;5109498;27;20731;-46
2022/07/31 05:52:25;;;;;;;18.57;14.70;;;16.90;99.90;;;;;;5115404;27;20296;-43
2022/07/31 05:55:11;;;;;;;20.03;14.20;;;16.90;99.90;;;;;;5108315;27;20248;-44
2022/07/31 05:57:54;;;;;;;20.57;15.47;;;17.10;99.90;;;;;;5123739;27;20649;-45
2022/07/31 06:00:21;;;;;;;17.67;15.83;;;17.10;99.90;;;;;;5112610;27;20211;-45
2022/07/31 06:02:48;;;;;;;21.07;16.07;;;17.20;99.90;;;;;;5111516;27;20208;-43
2022/07/31 06:05:53;;;;;;;18.13;15.00;;;17.30;99.90;;;;;;5120667;27;20197;-46
2022/07/31 06:08:20;;;;;;;18.57;14.13;;;17.40;99.90;;;;;;5108145;27;20225;-45
2022/07/31 06:10:49;;;;;;;19.60;15.47;;;17.50;99.90;;;;;;5116566;27;20217;-43
2022/07/31 06:13:17;;;;;;;22.73;15.20;;;17.60;99.90;;;;;;5101590;27;20209;-44
2022/07/31 06:15:43;;;;;;;20.30;15.07;;;17.70;99.90;;;;;;5111157;27;20237;-44
2022/07/31 06:18:13;;;;;;;15.87;12.67;;;17.80;99.90;;;;;;5109990;27;20278;-47
2022/07/31 06:20:40;;;;;;;15.07;13.30;;;17.90;99.90;;;;;;5104684;27;20205;-44
2022/07/31 06:23:08;;;;;;;16.87;15.00;;;17.90;99.90;;;;;;5111223;27;20729;-45
2022/07/31 06:25:37;;;;;;;25.07;15.53;;;18.00;99.90;;;;;;5109867;27;20896;-44
2022/07/31 06:28:05;;;;;;;16.33;12.40;;;18.10;99.90;;;;;;5109474;27;20217;-46
2022/07/31 06:30:31;;;;;;;15.47;13.87;;;18.20;99.90;;;;;;5113865;27;20572;-44
2022/07/31 06:32:58;;;;;;;15.97;14.37;;;18.30;99.90;;;;;;5117058;27;20208;-45
2022/07/31 06:35:28;;;;;;;13.90;12.40;;;18.40;99.90;;;;;;5098787;27;20233;-45
2022/07/31 06:38:23;;;;;;;14.93;12.93;;;18.50;99.90;;;;;;5115958;27;20273;-49
2022/07/31 06:41:08;;;;;;;12.07;10.87;;;18.50;99.90;;;;;;5119140;27;20390;-44
2022/07/31 06:43:46;;;;;;;11.07;9.27;;;18.60;99.90;;;;;;5104199;27;20220;-44
2022/07/31 06:46:31;;;;;;;10.70;9.40;;;18.70;99.90;;;;;;5108137;27;20212;-45
2022/07/31 06:49:17;;;;;;;11.10;9.60;;;18.80;99.90;;;;;;5106510;27;20250;-45
2022/07/31 06:51:44;;;;;;;8.83;7.27;;;18.90;99.90;;;;;;5104275;27;20302;-46
2022/07/31 06:54:12;;;;;;;9.97;8.60;;;18.90;99.90;;;;;;5108750;27;20212;-45
2022/07/31 06:56:39;;;;;;;9.03;6.83;;;19.10;99.90;;;;;;5104627;27;20205;-44
2022/07/31 06:59:07;;;;;;;6.73;6.13;;;19.10;99.90;;;;;;5105784;27;20246;-44
2022/07/31 07:01:34;;;;;;;5.40;4.90;;;19.10;99.90;;;;;;5106254;27;20882;-45
2022/07/31 07:04:02;;;;;;;4.53;4.23;;;19.10;99.90;;;;;;5104310;27;20205;-47
2022/07/31 07:06:29;;;;;;;5.07;4.67;;;19.20;99.90;;;;;;5100198;27;20683;-44
2022/07/31 07:08:56;;;;;;;6.77;5.70;;;19.20;99.90;;;;;;5113251;27;20200;-44
2022/07/31 07:11:24;;;;;;;8.23;5.73;;;19.40;99.90;;;;;;5107562;27;20843;-45
2022/07/31 07:13:51;;;;;;;6.40;5.67;;;19.40;99.90;;;;;;5111257;27;20253;-43
2022/07/31 07:16:19;;;;;;;5.60;5.10;;;19.50;99.90;;;;;;5107320;27;20292;-44
2022/07/31 07:18:46;;;;;;;6.33;5.10;;;19.50;99.90;;;;;;5105768;27;21685;-44
2022/07/31 07:21:13;;;;;;;5.83;4.60;;;19.50;99.90;;;;;;5098907;27;20201;-44
2022/07/31 07:23:41;;;;;;;5.63;5.13;;;19.50;99.90;;;;;;5103115;27;20193;-51
2022/07/31 07:26:38;;;;;;;5.37;4.83;;;19.50;99.90;;;;;;5100150;27;20193;-45
2022/07/31 07:29:05;;;;;;;6.47;4.87;;;19.60;99.90;;;;;;5111334;27;20193;-46
2022/07/31 07:31:33;;;;;;;6.80;4.00;;;19.70;99.90;;;;;;5102492;27;20554;-44
2022/07/31 07:34:04;;;;;;;6.00;4.70;;;19.80;99.90;;;;;;5112410;27;20291;-47
2022/07/31 07:36:32;;;;;;;5.73;5.07;;;19.80;99.90;;;;;;5087467;27;20202;-45
2022/07/31 07:39:03;;;;;;;6.03;5.10;;;19.80;99.90;;;;;;5134596;27;20316;-46
2022/07/31 07:41:31;;;;;;;6.03;4.60;;;19.90;99.90;;;;;;5104464;27;20608;-44
2022/07/31 07:44:00;;;;;;;4.57;4.17;;;19.90;99.90;;;;;;5111311;27;20194;-47
2022/07/31 07:46:29;;;;;;;4.00;3.70;;;20.00;99.90;;;;;;5106873;27;20718;-44
2022/07/31 07:48:59;;;;;;;4.80;3.57;;;20.10;99.90;;;;;;5104138;27;20247;-44
2022/07/31 07:51:35;;;;;;;5.20;3.53;;;20.10;99.90;;;;;;5092246;27;20287;-45
2022/07/31 07:54:24;;;;;;;5.20;3.47;;;20.10;99.90;;;;;;5108685;27;20670;-47
2022/07/31 07:57:09;;;;;;;4.60;2.30;;;20.10;99.90;;;;;;5106961;27;20603;-47
2022/07/31 08:00:16;;;;;;;4.50;2.40;;;20.20;99.90;;;;;;5111318;27;20209;-49
2022/07/31 08:02:44;;;;;;;4.90;2.63;;;20.20;99.90;;;;;;5105777;27;20196;-49
2022/07/31 08:05:12;;;;;;;4.50;2.50;;;20.20;99.90;;;;;;5106688;27;20197;-48
2022/07/31 08:07:41;;;;;;;3.73;3.23;;;20.30;99.90;;;;;;5089932;27;20223;-48
2022/07/31 08:10:20;;;;;;;3.83;3.17;;;20.40;99.90;;;;;;5119866;27;20216;-48
2022/07/31 08:12:54;;;;;;;4.10;3.70;;;20.40;99.90;;;;;;5104563;27;20193;-46
2022/07/31 08:15:40;;;;;;;3.77;2.83;;;20.50;99.90;;;;;;5107671;27;20924;-44
2022/07/31 08:18:12;;;;;;;4.53;2.60;;;20.60;99.90;;;;;;5107622;27;20693;-45
2022/07/31 08:20:39;;;;;;;2.90;2.70;;;20.60;99.90;;;;;;5105733;27;20200;-45
2022/07/31 08:23:07;;;;;;;5.10;2.90;;;20.70;99.90;;;;;;5099044;27;20196;-45
2022/07/31 08:25:34;;;;;;;5.33;2.73;;;20.70;99.90;;;;;;5116846;27;20193;-43
2022/07/31 08:28:02;;;;;;;5.20;2.83;;;20.70;99.90;;;;;;5119782;27;20245;-43
2022/07/31 08:30:30;;;;;;;4.77;3.57;;;20.80;99.90;;;;;;5100993;27;20200;-44
2022/07/31 08:32:58;;;;;;;3.93;3.13;;;20.90;99.90;;;;;;5105960;27;20192;-43
2022/07/31 08:35:34;;;;;;;3.40;2.90;;;20.90;99.90;;;;;;5117231;27;20204;-45
2022/07/31 08:38:01;;;;;;;5.43;2.70;;;21.00;99.90;;;;;;5103076;27;20260;-46
2022/07/31 08:40:29;;;;;;;3.93;2.80;;;21.00;99.90;;;;;;5109617;27;20227;-43
2022/07/31 08:42:56;;;;;;;3.20;2.90;;;21.00;99.90;;;;;;5112281;27;20201;-43
2022/07/31 08:45:23;;;;;;;3.87;3.03;;;21.00;99.90;;;;;;5106674;27;20193;-46
2022/07/31 08:48:07;;;;;;;4.83;2.70;;;20.90;99.90;;;;;;5109721;27;20227;-46
2022/07/31 08:50:45;;;;;;;3.10;2.57;;;21.00;99.90;;;;;;5112864;27;20196;-43
2022/07/31 08:53:31;;;;;;;3.13;2.22;;;21.00;99.90;;;;;;5095583;27;20208;-43
2022/07/31 08:56:08;;;;;;;2.77;2.20;;;21.10;99.90;;;;;;5107900;27;20204;-43
2022/07/31 08:58:36;;;;;;;2.30;2.10;;;21.20;99.90;;;;;;5108984;27;20209;-44
2022/07/31 09:01:03;;;;;;;3.33;2.30;;;21.30;99.90;;;;;;5103095;28;20247;-43
2022/07/31 09:03:31;;;;;;;3.87;2.20;;;21.40;99.90;;;;;;5118074;27;20570;-45
2022/07/31 09:06:01;;;;;;;2.83;2.40;;;21.40;99.90;;;;;;5111208;27;20198;-43
2022/07/31 09:08:31;;;;;;;3.28;2.28;;;21.40;99.90;;;;;;5094781;27;20217;-44
2022/07/31 09:11:03;;;;;;;2.58;2.28;;;21.40;99.90;;;;;;5112400;27;20239;-43
2022/07/31 09:13:30;;;;;;;6.75;2.40;;;21.40;99.90;;;;;;5096709;27;20250;-45
2022/07/31 09:16:01;;;;;;;2.58;2.38;;;21.50;99.90;;;;;;5108110;27;20226;-45
2022/07/31 09:18:32;;;;;;;3.08;2.38;;;21.60;99.90;;;;;;5112686;27;20772;-43
2022/07/31 09:21:06;;;;;;;3.05;2.00;;;21.60;99.90;;;;;;5116392;27;20201;-43
2022/07/31 09:23:42;;;;;;;4.47;2.47;;;21.60;99.90;;;;;;5099313;28;20205;-45
2022/07/31 09:26:09;;;;;;;2.15;1.95;;;21.60;99.90;;;;;;5107056;27;20196;-44
2022/07/31 09:28:39;;;;;;;4.43;1.93;;;21.50;99.90;;;;;;5106294;28;20218;-43
2022/07/31 09:31:07;;;;;;;2.45;1.67;;;21.40;99.90;;;;;;5102931;28;20661;-43
2022/07/31 09:33:54;;;;;;;4.15;2.10;;;21.40;99.90;;;;;;5098046;28;20216;-46
2022/07/31 09:36:30;;;;;;;4.90;2.05;;;21.40;99.90;;;;;;5101725;28;20654;-43
2022/07/31 09:39:13;;;;;;;3.75;1.92;;;21.50;99.90;;;;;;5109013;28;20216;-42
2022/07/31 09:41:59;;;;;;;3.78;2.40;;;21.50;99.90;;;;;;5107713;28;20220;-43
2022/07/31 09:44:40;;;;;;;2.38;2.00;;;21.50;99.90;;;;;;5104742;28;20530;-43
2022/07/31 09:47:18;;;;;;;2.50;1.80;;;21.60;99.90;;;;;;5107424;28;20633;-44
2022/07/31 09:49:53;;;;;;;2.30;1.92;;;21.60;99.90;;;;;;5099882;28;20608;-43
2022/07/31 09:52:20;;;;;;;4.45;2.10;;;21.70;99.90;;;;;;5103271;28;20196;-43
2022/07/31 09:54:47;;;;;;;2.72;1.88;;;21.80;99.90;;;;;;5098896;28;20221;-45
2022/07/31 09:57:27;;;;;;;2.15;1.50;;;21.90;99.90;;;;;;5102729;28;20556;-44
2022/07/31 09:59:56;;;;;;;2.85;1.80;;;21.90;99.90;;;;;;5103947;28;20208;-43
2022/07/31 10:02:25;;;;;;;5.82;2.13;;;22.00;99.90;;;;;;5113524;28;20653;-48
2022/07/31 10:04:54;;;;;;;5.55;2.35;;;22.10;99.90;;;;;;5106110;28;20304;-43
2022/07/31 10:07:25;;;;;;;3.33;1.70;;;22.30;99.90;;;;;;5103526;28;20254;-42
2022/07/31 10:09:54;;;;;;;2.05;1.73;;;22.40;99.90;;;;;;5101700;28;20232;-44
2022/07/31 10:12:46;;;;;;;4.82;2.03;;;22.60;99.90;;;;;;5099984;27;20203;-45
2022/07/31 10:15:16;;;;;;;4.25;2.00;;;22.90;99.90;;;;;;5110002;28;20203;-43
2022/07/31 10:17:48;;;;;;;4.13;2.05;;;23.00;99.90;;;;;;5105674;28;20716;-43
2022/07/31 10:20:39;;;;;;;2.85;2.42;;;23.20;99.90;;;;;;5115211;27;20211;-43
2022/07/31 10:23:44;;;;;;;2.10;1.75;;;23.40;99.80;;;;;;5091400;27;20209;-45
2022/07/31 10:26:13;;;;;;;2.90;1.95;;;23.40;99.10;;;;;;5098483;27;20197;-44
2022/07/31 10:28:40;;;;;;;2.83;1.88;;;23.30;98.50;;;;;;5105464;27;20225;-43
2022/07/31 10:31:07;;;;;;;2.22;2.00;;;23.40;98.70;;;;;;5110061;27;20644;-47
2022/07/31 10:33:35;;;;;;;2.22;1.80;;;23.40;98.50;;;;;;5116734;27;20213;-43
2022/07/31 10:36:37;;;;;;;4.55;2.10;;;23.50;97.90;;;;;;5109422;27;20664;-44
2022/07/31 10:39:27;;;;;;;1.67;1.58;;;23.70;97.70;;;;;;5112597;27;20228;-45
2022/07/31 10:42:21;;;;;;;2.60;1.80;;;23.80;96.40;;;;;;5097535;27;20375;-43
2022/07/31 10:44:55;;;;;;;1.80;1.70;;;23.70;96.30;;;;;;5110892;27;20821;-52
2022/07/31 10:47:30;;;;;;;1.55;1.35;;;23.90;96.00;;;;;;5113689;27;20832;-49
2022/07/31 10:50:21;;;;;;;1.98;1.52;;;24.10;95.60;;;;;;5105919;27;20271;-48
2022/07/31 10:53:11;;;;;;;4.00;2.00;;;24.30;94.80;;;;;;5101499;27;20387;-43
2022/07/31 10:56:01;;;;;;;2.97;1.83;;;24.40;94.20;;;;;;5107973;27;20204;-54
2022/07/31 10:58:47;;;;;;;4.25;2.10;;;24.50;94.70;;;;;;5105600;27;20213;-54
2022/07/31 11:01:32;;;;;;;3.00;1.60;;;24.70;94.20;;;;;;5114561;27;20230;-51
2022/07/31 11:04:30;;;;;;;3.22;1.63;;;24.80;94.30;;;;;;5110697;27;20193;-52
2022/07/31 11:07:18;;;;;;;3.25;1.75;;;24.80;92.80;;;;;;5113423;27;20792;-47
2022/07/31 11:10:17;;;;;;;1.73;1.50;;;24.80;92.30;;;;;;5112159;27;20645;-46
2022/07/31 11:13:04;;;;;;;1.65;1.55;;;24.90;92.40;;;;;;5102826;27;20802;-58
2022/07/31 11:16:02;;;;;;;2.08;1.60;;;24.90;92.50;;;;;;5087825;27;20200;-53
2022/07/31 11:18:57;;;;;;;4.38;1.90;;;24.90;92.00;;;;;;5107623;27;20934;-50
2022/07/31 11:21:32;;;;;;;4.50;2.20;;;24.90;92.20;;;;;;5112407;27;20819;-54
2022/07/31 11:24:00;;;;;;;2.10;1.90;;;25.10;91.50;;;;;;5107792;27;20224;-50
2022/07/31 11:26:29;;;;;;;3.20;1.88;;;25.10;91.50;;;;;;5112988;27;20193;-53
2022/07/31 11:28:55;;;;;;;3.85;2.00;;;25.20;91.50;;;;;;5097095;27;20209;-54
2022/07/31 11:31:28;;;;;;;5.43;2.20;;;25.20;91.20;;;;;;5110103;27;20197;-52
2022/07/31 11:33:55;;;;;;;2.08;1.90;;;25.10;90.90;;;;;;5113280;27;20288;-50
2022/07/31 11:36:23;;;;;;;2.70;1.98;;;25.10;91.30;;;;;;5115068;27;20689;-50
2022/07/31 11:38:52;;;;;;;4.95;2.17;;;25.10;90.90;;;;;;5115967;27;20328;-47
2022/07/31 11:41:20;;;;;;;3.35;1.50;;;25.10;90.90;;;;;;5113197;27;20242;-49
2022/07/31 11:43:50;;;;;;;2.63;2.00;;;25.20;90.10;;;;;;5114139;27;20193;-47
2022/07/31 11:46:24;;;;;;;2.92;1.80;;;25.30;90.30;;;;;;5095162;27;20693;-51
2022/07/31 11:48:51;;;;;;;2.67;2.05;;;25.50;90.50;;;;;;5113274;27;20204;-52
2022/07/31 11:51:19;;;;;;;2.67;2.25;;;25.60;89.40;;;;;;5107934;27;20599;-53
2022/07/31 11:53:46;;;;;;;5.03;1.90;;;25.50;88.10;;;;;;5095858;27;20769;-52
2022/07/31 11:56:16;;;;;;;3.75;1.90;;;25.30;88.20;;;;;;5102026;27;20204;-49
2022/07/31 11:58:48;;;;;;;2.50;2.30;;;25.50;88.80;;;;;;5106360;27;20217;-52
2022/07/31 12:01:16;;;;;;;5.60;2.30;;;25.60;88.60;;;;;;5096780;27;20216;-53
2022/07/31 12:03:44;;;;;;;5.70;2.40;;;25.70;89.40;;;;;;5115588;27;20680;-53
2022/07/31 12:06:11;;;;;;;4.28;2.35;;;25.80;87.40;;;;;;5111369;27;20879;-54
2022/07/31 12:08:40;;;;;;;2.00;1.90;;;25.70;87.40;;;;;;5106957;27;20305;-47
2022/07/31 12:11:08;;;;;;;3.30;1.88;;;25.80;86.80;;;;;;5104492;27;20827;-49
2022/07/31 12:13:36;;;;;;;6.47;2.10;;;25.90;86.70;;;;;;5113317;27;20552;-53
2022/07/31 12:16:07;;;;;;;4.88;2.03;;;26.00;86.30;;;;;;5090001;27;20213;-50
2022/07/31 12:18:46;;;;;;;2.85;1.90;;;26.10;86.30;;;;;;5111432;27;20261;-52
2022/07/31 12:21:13;;;;;;;18.13;13.23;;;26.30;86.20;;;;;;5106759;27;20201;-55
2022/07/31 12:23:41;;;;;;;3.90;2.40;;;26.50;86.30;;;;;;5101373;27;20209;-54
2022/07/31 12:26:11;;;;;;;2.45;2.00;;;26.50;85.70;;;;;;5101659;27;20245;-54
2022/07/31 12:28:38;;;;;;;2.72;1.95;;;26.50;85.10;;;;;;5115710;27;20209;-52
2022/07/31 12:31:06;;;;;;;3.30;2.08;;;26.60;85.20;;;;;;5099770;27;20201;-56
2022/07/31 12:33:40;;;;;;;3.03;2.08;;;26.70;84.50;;;;;;5096840;27;20733;-53
2022/07/31 12:36:11;;;;;;;3.03;1.95;;;26.50;82.10;;;;;;5110925;27;20219;-47
2022/07/31 12:38:39;;;;;;;2.42;1.98;;;26.30;83.30;;;;;;5108821;27;20751;-51
2022/07/31 12:41:05;;;;;;;2.13;1.98;;;26.20;83.90;;;;;;5105630;27;20189;-52
2022/07/31 12:43:32;;;;;;;4.22;1.75;;;26.20;84.00;;;;;;5104504;27;20201;-48
2022/07/31 12:46:03;;;;;;;2.88;1.77;;;26.20;84.20;;;;;;5102933;27;20233;-52
2022/07/31 12:48:32;;;;;;;3.25;1.90;;;26.20;83.60;;;;;;5099618;27;20239;-54
2022/07/31 12:50:59;;;;;;;2.17;2.00;;;26.10;83.80;;;;;;5103738;27;20287;-52
2022/07/31 12:53:28;;;;;;;2.83;1.70;;;25.90;83.40;;;;;;5110216;27;20219;-49
2022/07/31 12:55:55;;;;;;;2.45;2.25;;;25.80;83.30;;;;;;5104755;27;20230;-52
2022/07/31 12:58:22;;;;;;;4.18;2.30;;;25.70;82.80;;;;;;5111030;27;20205;-51
2022/07/31 13:00:48;;;;;;;2.05;1.65;;;25.60;84.10;;;;;;5112256;27;20201;-50